createdAt,value
2017-11-27T00:00:00.627Z,84.40
2017-11-27T00:01:00.642Z,84.30
2017-11-27T00:02:00.658Z,83.92
2017-11-27T00:03:00.673Z,84.21
2017-11-27T00:04:00.689Z,84.30
2017-11-27T00:05:00.702Z,84.11
2017-11-27T00:06:00.716Z,83.73
2017-11-27T00:07:00.738Z,83.16
2017-11-27T00:08:00.744Z,83.73
2017-11-27T00:09:00.759Z,83.45
2017-11-27T00:10:00.772Z,83.16
2017-11-27T00:11:00.787Z,83.07
2017-11-27T00:12:00.802Z,83.92
2017-11-27T00:13:00.813Z,83.92
2017-11-27T00:14:00.831Z,83.26
2017-11-27T00:15:00.851Z,83.26
2017-11-27T00:16:00.859Z,83.36
2017-11-27T00:17:00.874Z,83.45
2017-11-27T00:18:00.889Z,83.54
2017-11-27T00:19:00.904Z,83.83
2017-11-27T00:20:00.915Z,83.73
2017-11-27T00:21:00.930Z,83.64
2017-11-27T00:22:00.946Z,83.64
2017-11-27T00:23:00.959Z,83.64
2017-11-27T00:24:00.976Z,84.01
2017-11-27T00:25:00.990Z,83.64
2017-11-27T00:26:01.003Z,83.83
2017-11-27T00:27:01.020Z,83.16
2017-11-27T00:28:01.035Z,82.69
2017-11-27T00:29:01.048Z,82.59
2017-11-27T00:30:01.060Z,83.07
2017-11-27T00:31:01.076Z,83.59
2017-11-27T00:32:01.107Z,83.88
2017-11-27T00:33:01.101Z,83.78
2017-11-27T00:34:01.116Z,84.17
2017-11-27T00:35:01.131Z,83.97
2017-11-27T00:36:01.151Z,83.88
2017-11-27T00:37:01.160Z,83.78
2017-11-27T00:38:01.174Z,84.26
2017-11-27T00:39:01.188Z,84.26
2017-11-27T00:40:01.205Z,84.07
2017-11-27T00:41:01.219Z,84.07
2017-11-27T00:42:01.233Z,83.88
2017-11-27T00:43:01.249Z,83.69
2017-11-27T00:44:01.259Z,83.69
2017-11-27T00:45:01.275Z,83.69
2017-11-27T00:46:01.287Z,83.59
2017-11-27T00:47:01.303Z,83.50
2017-11-27T00:48:01.320Z,83.69
2017-11-27T00:49:01.333Z,83.59
2017-11-27T00:50:01.346Z,83.12
2017-11-27T00:51:01.362Z,83.07
2017-11-27T00:52:01.373Z,83.12
2017-11-27T00:53:01.392Z,82.65
2017-11-27T00:54:01.404Z,82.84
2017-11-27T00:55:01.418Z,83.03
2017-11-27T00:56:01.430Z,83.22
2017-11-27T00:57:01.446Z,82.74
2017-11-27T00:58:01.462Z,83.03
2017-11-27T00:59:01.473Z,83.12
2017-11-27T01:00:01.487Z,82.93
2017-11-27T01:01:01.501Z,82.65
2017-11-27T01:02:01.522Z,82.74
2017-11-27T01:03:01.532Z,82.55
2017-11-27T01:04:01.540Z,83.07
2017-11-27T01:05:01.565Z,82.84
2017-11-27T01:06:01.574Z,83.03
2017-11-27T01:07:01.592Z,82.74
2017-11-27T01:08:01.602Z,82.78
2017-11-27T01:09:01.613Z,82.50
2017-11-27T01:10:01.629Z,81.93
2017-11-27T01:11:01.644Z,81.65
2017-11-27T01:12:01.656Z,82.40
2017-11-27T01:13:01.673Z,82.03
2017-11-27T01:14:01.695Z,82.03
2017-11-27T01:15:01.699Z,81.55
2017-11-27T01:16:01.712Z,81.55
2017-11-27T01:17:01.730Z,81.65
2017-11-27T01:18:01.748Z,81.26
2017-11-27T01:19:01.759Z,82.12
2017-11-27T01:20:01.771Z,81.65
2017-11-27T01:21:01.783Z,82.03
2017-11-27T01:22:01.798Z,81.84
2017-11-27T01:23:01.815Z,81.74
2017-11-27T01:24:01.827Z,81.65
2017-11-27T01:25:01.843Z,81.07
2017-11-27T01:26:01.862Z,81.17
2017-11-27T01:27:01.870Z,81.65
2017-11-27T01:28:01.883Z,81.84
2017-11-27T01:29:01.897Z,81.70
2017-11-27T01:30:01.912Z,82.74
2017-11-27T01:31:01.929Z,82.36
2017-11-27T01:32:01.942Z,82.74
2017-11-27T01:33:01.955Z,82.55
2017-11-27T01:34:01.971Z,82.55
2017-11-27T01:35:01.982Z,82.55
2017-11-27T01:36:02.001Z,82.36
2017-11-27T01:37:02.014Z,82.21
2017-11-27T01:38:02.036Z,82.46
2017-11-27T01:39:02.042Z,82.84
2017-11-27T01:40:02.057Z,82.84
2017-11-27T01:41:02.070Z,82.27
2017-11-27T01:42:02.087Z,81.93
2017-11-27T01:43:02.098Z,81.65
2017-11-27T01:44:02.112Z,80.98
2017-11-27T01:45:02.267Z,82.08
2017-11-27T01:46:02.146Z,81.79
2017-11-27T01:47:02.161Z,81.79
2017-11-27T01:48:02.169Z,82.46
2017-11-27T01:49:02.183Z,81.88
2017-11-27T01:50:02.197Z,81.98
2017-11-27T01:51:02.213Z,82.03
2017-11-27T01:52:02.228Z,82.08
2017-11-27T01:53:02.240Z,81.79
2017-11-27T01:54:02.253Z,81.79
2017-11-27T01:55:02.267Z,81.60
2017-11-27T01:56:02.281Z,81.70
2017-11-27T01:57:02.303Z,81.79
2017-11-27T01:58:02.315Z,81.88
2017-11-27T01:59:02.325Z,81.84
2017-11-27T02:00:02.338Z,81.45
2017-11-27T02:01:02.354Z,81.70
2017-11-27T02:02:02.365Z,82.27
2017-11-27T02:03:02.382Z,81.65
2017-11-27T02:04:02.399Z,81.93
2017-11-27T02:05:02.419Z,81.65
2017-11-27T02:06:02.422Z,81.74
2017-11-27T02:07:02.437Z,80.98
2017-11-27T02:08:02.453Z,81.45
2017-11-27T02:09:02.467Z,81.17
2017-11-27T02:10:02.481Z,81.45
2017-11-27T02:11:02.494Z,81.17
2017-11-27T02:12:02.508Z,81.07
2017-11-27T02:13:02.522Z,81.07
2017-11-27T02:14:02.538Z,81.65
2017-11-27T02:15:02.551Z,81.26
2017-11-27T02:16:02.573Z,81.55
2017-11-27T02:17:02.582Z,81.07
2017-11-27T02:18:02.595Z,81.65
2017-11-27T02:19:02.617Z,82.31
2017-11-27T02:20:02.624Z,81.74
2017-11-27T02:21:02.641Z,81.74
2017-11-27T02:22:02.649Z,81.55
2017-11-27T02:23:02.669Z,81.65
2017-11-27T02:24:02.681Z,81.65
2017-11-27T02:25:02.698Z,80.79
2017-11-27T02:26:02.709Z,80.69
2017-11-27T02:27:02.733Z,81.55
2017-11-27T02:28:02.740Z,81.07
2017-11-27T02:29:02.756Z,80.88
2017-11-27T02:30:02.766Z,81.26
2017-11-27T02:31:02.781Z,80.88
2017-11-27T02:32:02.798Z,81.26
2017-11-27T02:33:02.817Z,81.07
2017-11-27T02:34:02.826Z,81.55
2017-11-27T02:35:02.839Z,80.98
2017-11-27T02:36:02.854Z,81.07
2017-11-27T02:37:02.867Z,81.26
2017-11-27T02:38:02.880Z,81.36
2017-11-27T02:39:02.896Z,80.88
2017-11-27T02:40:02.910Z,81.17
2017-11-27T02:41:02.925Z,80.69
2017-11-27T02:42:02.938Z,81.45
2017-11-27T02:43:02.953Z,81.17
2017-11-27T02:44:02.968Z,80.69
2017-11-27T02:45:02.980Z,81.65
2017-11-27T02:46:02.995Z,81.41
2017-11-27T02:47:03.014Z,81.51
2017-11-27T02:48:03.029Z,81.32
2017-11-27T02:49:03.039Z,81.70
2017-11-27T02:50:03.053Z,81.79
2017-11-27T02:51:03.073Z,81.79
2017-11-27T02:52:03.081Z,81.98
2017-11-27T02:53:03.095Z,81.51
2017-11-27T02:54:03.112Z,80.94
2017-11-27T02:55:03.124Z,80.94
2017-11-27T02:56:03.314Z,81.41
2017-11-27T02:57:03.160Z,81.88
2017-11-27T02:58:03.165Z,82.17
2017-11-27T02:59:03.188Z,82.17
2017-11-27T03:00:03.194Z,82.74
2017-11-27T03:01:03.208Z,82.17
2017-11-27T03:02:03.221Z,81.70
2017-11-27T03:03:03.248Z,81.88
2017-11-27T03:04:03.252Z,81.60
2017-11-27T03:05:03.265Z,81.79
2017-11-27T03:06:03.280Z,81.70
2017-11-27T03:07:03.292Z,81.98
2017-11-27T03:08:03.307Z,81.79
2017-11-27T03:09:03.322Z,81.79
2017-11-27T03:10:03.337Z,81.79
2017-11-27T03:11:03.347Z,82.08
2017-11-27T03:12:03.362Z,81.60
2017-11-27T03:13:03.379Z,82.17
2017-11-27T03:14:03.394Z,81.70
2017-11-27T03:15:03.406Z,81.70
2017-11-27T03:16:03.420Z,81.32
2017-11-27T03:17:03.434Z,81.32
2017-11-27T03:18:03.446Z,80.37
2017-11-27T03:19:03.463Z,80.75
2017-11-27T03:20:03.477Z,81.60
2017-11-27T03:21:03.488Z,81.23
2017-11-27T03:22:03.502Z,80.94
2017-11-27T03:23:03.516Z,81.60
2017-11-27T03:24:03.529Z,81.79
2017-11-27T03:25:03.545Z,81.04
2017-11-27T03:26:03.560Z,81.32
2017-11-27T03:27:03.573Z,82.17
2017-11-27T03:28:03.586Z,81.79
2017-11-27T03:29:03.600Z,82.08
2017-11-27T03:30:03.632Z,81.79
2017-11-27T03:31:03.631Z,81.88
2017-11-27T03:32:03.643Z,82.08
2017-11-27T03:33:03.658Z,82.08
2017-11-27T03:34:03.677Z,81.32
2017-11-27T03:35:03.691Z,80.88
2017-11-27T03:36:03.707Z,81.07
2017-11-27T03:37:03.716Z,81.23
2017-11-27T03:38:03.727Z,81.32
2017-11-27T03:39:03.743Z,81.60
2017-11-27T03:40:03.756Z,81.65
2017-11-27T03:41:03.770Z,81.45
2017-11-27T03:42:03.783Z,81.23
2017-11-27T03:43:03.809Z,81.41
2017-11-27T03:44:03.820Z,81.70
2017-11-27T03:45:03.827Z,81.51
2017-11-27T03:46:03.840Z,81.41
2017-11-27T03:47:03.856Z,81.32
2017-11-27T03:48:03.870Z,81.79
2017-11-27T03:49:03.886Z,81.32
2017-11-27T03:50:03.898Z,81.26
2017-11-27T03:51:03.912Z,81.70
2017-11-27T03:52:03.924Z,81.88
2017-11-27T03:53:03.938Z,81.32
2017-11-27T03:54:03.953Z,81.13
2017-11-27T03:55:03.969Z,81.51
2017-11-27T03:56:03.983Z,81.23
2017-11-27T03:57:03.997Z,81.32
2017-11-27T03:58:04.012Z,81.23
2017-11-27T03:59:04.024Z,81.23
2017-11-27T04:00:04.039Z,82.17
2017-11-27T04:01:04.053Z,81.60
2017-11-27T04:02:04.065Z,81.23
2017-11-27T04:03:04.082Z,80.94
2017-11-27T04:04:04.098Z,81.23
2017-11-27T04:05:04.111Z,81.23
2017-11-27T04:06:04.122Z,81.51
2017-11-27T04:07:04.138Z,81.70
2017-11-27T04:08:04.149Z,81.70
2017-11-27T04:09:04.166Z,81.13
2017-11-27T04:10:04.179Z,81.32
2017-11-27T04:11:04.195Z,81.32
2017-11-27T04:12:04.211Z,81.79
2017-11-27T04:13:04.223Z,82.17
2017-11-27T04:14:04.236Z,81.70
2017-11-27T04:15:04.250Z,81.88
2017-11-27T04:16:04.264Z,82.08
2017-11-27T04:17:04.281Z,82.27
2017-11-27T04:18:04.294Z,82.55
2017-11-27T04:19:04.306Z,81.98
2017-11-27T04:20:04.320Z,81.70
2017-11-27T04:21:04.338Z,81.88
2017-11-27T04:22:04.350Z,81.70
2017-11-27T04:23:04.362Z,81.88
2017-11-27T04:24:04.378Z,81.60
2017-11-27T04:25:04.395Z,81.79
2017-11-27T04:26:04.406Z,82.46
2017-11-27T04:27:04.417Z,82.36
2017-11-27T04:28:04.433Z,82.65
2017-11-27T04:29:04.448Z,82.17
2017-11-27T04:30:04.462Z,81.79
2017-11-27T04:31:04.474Z,81.79
2017-11-27T04:32:04.489Z,81.88
2017-11-27T04:33:04.508Z,81.88
2017-11-27T04:34:04.522Z,81.79
2017-11-27T04:35:04.533Z,82.46
2017-11-27T04:36:04.547Z,82.93
2017-11-27T04:37:04.557Z,82.84
2017-11-27T04:38:04.713Z,83.69
2017-11-27T04:39:04.588Z,84.07
2017-11-27T04:40:04.601Z,84.07
2017-11-27T04:41:04.618Z,85.11
2017-11-27T04:42:04.631Z,85.02
2017-11-27T04:43:04.645Z,85.59
2017-11-27T04:44:04.661Z,85.49
2017-11-27T04:45:04.672Z,85.21
2017-11-27T04:46:04.683Z,84.83
2017-11-27T04:47:04.699Z,85.11
2017-11-27T04:48:04.718Z,85.55
2017-11-27T04:49:04.729Z,85.97
2017-11-27T04:50:04.741Z,85.40
2017-11-27T04:51:04.756Z,85.02
2017-11-27T04:52:04.768Z,84.74
2017-11-27T04:53:04.786Z,84.83
2017-11-27T04:54:04.813Z,85.21
2017-11-27T04:55:04.816Z,85.02
2017-11-27T04:56:04.839Z,84.45
2017-11-27T04:57:04.847Z,84.36
2017-11-27T04:58:04.854Z,84.74
2017-11-27T04:59:04.866Z,84.92
2017-11-27T05:00:04.885Z,85.30
2017-11-27T05:01:04.901Z,85.78
2017-11-27T05:02:04.908Z,85.68
2017-11-27T05:03:04.923Z,86.21
2017-11-27T05:04:04.950Z,86.25
2017-11-27T05:05:04.953Z,85.87
2017-11-27T05:06:04.966Z,85.40
2017-11-27T05:07:04.981Z,85.68
2017-11-27T05:08:04.993Z,85.68
2017-11-27T05:09:05.005Z,85.21
2017-11-27T05:10:05.031Z,85.40
2017-11-27T05:11:05.038Z,85.21
2017-11-27T05:12:05.050Z,86.21
2017-11-27T05:13:05.063Z,87.06
2017-11-27T05:14:05.077Z,87.06
2017-11-27T05:15:05.101Z,87.20
2017-11-27T05:16:05.104Z,86.44
2017-11-27T05:17:05.118Z,86.25
2017-11-27T05:18:05.129Z,85.87
2017-11-27T05:19:05.149Z,85.21
2017-11-27T05:20:05.163Z,85.40
2017-11-27T05:21:05.174Z,85.49
2017-11-27T05:22:05.187Z,85.21
2017-11-27T05:23:05.200Z,85.21
2017-11-27T05:24:05.218Z,85.11
2017-11-27T05:25:05.230Z,85.21
2017-11-27T05:26:05.242Z,85.40
2017-11-27T05:27:05.259Z,85.30
2017-11-27T05:28:05.275Z,86.16
2017-11-27T05:29:05.285Z,86.63
2017-11-27T05:30:05.300Z,85.68
2017-11-27T05:31:05.313Z,85.30
2017-11-27T05:32:05.335Z,85.87
2017-11-27T05:33:05.344Z,85.30
2017-11-27T05:34:05.356Z,84.55
2017-11-27T05:35:05.371Z,84.26
2017-11-27T05:36:05.387Z,84.01
2017-11-27T05:37:05.402Z,84.26
2017-11-27T05:38:05.413Z,85.11
2017-11-27T05:39:05.425Z,85.59
2017-11-27T05:40:05.442Z,85.11
2017-11-27T05:41:05.454Z,85.59
2017-11-27T05:42:05.468Z,85.87
2017-11-27T05:43:05.484Z,86.16
2017-11-27T05:44:05.496Z,85.59
2017-11-27T05:45:05.513Z,85.02
2017-11-27T05:46:05.527Z,85.40
2017-11-27T05:47:05.540Z,86.25
2017-11-27T05:48:05.553Z,86.25
2017-11-27T05:49:05.567Z,86.07
2017-11-27T05:50:05.579Z,86.44
2017-11-27T05:51:05.598Z,86.35
2017-11-27T05:52:05.608Z,86.44
2017-11-27T05:53:05.624Z,86.54
2017-11-27T05:54:05.639Z,85.78
2017-11-27T05:55:05.649Z,85.21
2017-11-27T05:56:05.666Z,85.21
2017-11-27T05:57:05.677Z,85.30
2017-11-27T05:58:05.691Z,85.40
2017-11-27T05:59:05.708Z,85.11
2017-11-27T06:00:05.720Z,85.40
2017-11-27T06:01:05.735Z,85.02
2017-11-27T06:02:05.747Z,85.11
2017-11-27T06:03:05.764Z,85.40
2017-11-27T06:04:05.777Z,85.11
2017-11-27T06:05:05.794Z,85.21
2017-11-27T06:06:05.808Z,85.02
2017-11-27T06:07:05.827Z,84.92
2017-11-27T06:08:05.832Z,84.74
2017-11-27T06:09:05.850Z,85.11
2017-11-27T06:10:05.861Z,85.49
2017-11-27T06:11:05.878Z,85.68
2017-11-27T06:12:05.898Z,85.40
2017-11-27T06:13:05.903Z,85.40
2017-11-27T06:14:05.928Z,85.40
2017-11-27T06:15:05.932Z,86.07
2017-11-27T06:16:05.947Z,85.68
2017-11-27T06:17:05.963Z,85.97
2017-11-27T06:18:05.982Z,85.97
2017-11-27T06:19:05.989Z,85.97
2017-11-27T06:20:06.010Z,85.78
2017-11-27T06:21:06.021Z,86.07
2017-11-27T06:22:06.032Z,86.25
2017-11-27T06:23:06.045Z,87.16
2017-11-27T06:24:06.058Z,87.11
2017-11-27T06:25:06.082Z,86.91
2017-11-27T06:26:06.088Z,87.01
2017-11-27T06:27:06.102Z,86.54
2017-11-27T06:28:06.115Z,86.25
2017-11-27T06:29:06.129Z,85.97
2017-11-27T06:30:06.149Z,85.68
2017-11-27T06:31:06.155Z,86.07
2017-11-27T06:32:06.172Z,85.78
2017-11-27T06:33:06.185Z,86.16
2017-11-27T06:34:06.198Z,86.07
2017-11-27T06:35:06.212Z,85.68
2017-11-27T06:36:06.226Z,85.68
2017-11-27T06:37:06.241Z,86.25
2017-11-27T06:38:06.255Z,85.40
2017-11-27T06:39:06.266Z,85.11
2017-11-27T06:40:06.285Z,85.59
2017-11-27T06:41:06.299Z,85.68
2017-11-27T06:42:06.314Z,86.16
2017-11-27T06:43:06.325Z,86.07
2017-11-27T06:44:06.338Z,85.97
2017-11-27T06:45:06.353Z,85.78
2017-11-27T06:46:06.369Z,86.21
2017-11-27T06:47:06.516Z,86.68
2017-11-27T06:48:06.396Z,87.25
2017-11-27T06:49:06.416Z,86.87
2017-11-27T06:50:06.436Z,86.54
2017-11-27T06:51:06.438Z,86.25
2017-11-27T06:52:06.455Z,86.21
2017-11-27T06:53:06.465Z,87.16
2017-11-27T06:54:06.476Z,86.40
2017-11-27T06:55:06.492Z,86.44
2017-11-27T06:56:06.510Z,86.07
2017-11-27T06:57:06.523Z,85.49
2017-11-27T06:58:06.535Z,85.87
2017-11-27T06:59:06.547Z,85.49
2017-11-27T07:00:06.561Z,85.40
2017-11-27T07:01:06.575Z,85.21
2017-11-27T07:02:06.591Z,85.30
2017-11-27T07:03:06.603Z,85.21
2017-11-27T07:04:06.615Z,85.59
2017-11-27T07:05:06.633Z,85.49
2017-11-27T07:06:06.651Z,85.55
2017-11-27T07:07:06.662Z,86.49
2017-11-27T07:08:06.673Z,86.40
2017-11-27T07:09:06.686Z,86.40
2017-11-27T07:10:06.701Z,86.30
2017-11-27T07:11:06.715Z,87.25
2017-11-27T07:12:06.730Z,86.78
2017-11-27T07:13:06.742Z,86.49
2017-11-27T07:14:06.764Z,86.11
2017-11-27T07:15:06.771Z,85.68
2017-11-27T07:16:06.781Z,85.93
2017-11-27T07:17:06.797Z,86.02
2017-11-27T07:18:06.820Z,86.49
2017-11-27T07:19:06.824Z,86.59
2017-11-27T07:20:06.847Z,86.30
2017-11-27T07:21:06.853Z,86.49
2017-11-27T07:22:06.869Z,86.49
2017-11-27T07:23:06.881Z,85.64
2017-11-27T07:24:06.894Z,85.45
2017-11-27T07:25:06.907Z,85.17
2017-11-27T07:26:06.921Z,85.93
2017-11-27T07:27:06.942Z,86.11
2017-11-27T07:28:06.949Z,85.55
2017-11-27T07:29:06.967Z,85.36
2017-11-27T07:30:06.976Z,85.36
2017-11-27T07:31:06.987Z,85.36
2017-11-27T07:32:07.009Z,84.83
2017-11-27T07:33:07.017Z,84.88
2017-11-27T07:34:07.034Z,85.45
2017-11-27T07:35:07.044Z,85.36
2017-11-27T07:36:07.056Z,85.36
2017-11-27T07:37:07.072Z,84.88
2017-11-27T07:38:07.084Z,85.45
2017-11-27T07:39:07.100Z,85.45
2017-11-27T07:40:07.114Z,85.36
2017-11-27T07:41:07.134Z,85.07
2017-11-27T07:42:07.145Z,85.36
2017-11-27T07:43:07.152Z,85.36
2017-11-27T07:44:07.167Z,84.98
2017-11-27T07:45:07.191Z,85.64
2017-11-27T07:46:07.196Z,85.17
2017-11-27T07:47:07.208Z,85.17
2017-11-27T07:48:07.223Z,85.74
2017-11-27T07:49:07.236Z,85.93
2017-11-27T07:50:07.257Z,85.07
2017-11-27T07:51:07.265Z,85.26
2017-11-27T07:52:07.280Z,84.98
2017-11-27T07:53:07.295Z,84.78
2017-11-27T07:54:07.325Z,85.07
2017-11-27T07:55:07.319Z,85.17
2017-11-27T07:56:07.333Z,84.78
2017-11-27T07:57:07.349Z,85.36
2017-11-27T07:58:07.360Z,85.40
2017-11-27T07:59:07.374Z,85.02
2017-11-27T08:00:07.392Z,84.17
2017-11-27T08:01:07.404Z,83.40
2017-11-27T08:02:07.414Z,83.59
2017-11-27T08:03:07.430Z,83.69
2017-11-27T08:04:07.446Z,83.69
2017-11-27T08:05:07.458Z,83.69
2017-11-27T08:06:07.473Z,83.88
2017-11-27T08:07:07.485Z,83.78
2017-11-27T08:08:07.508Z,83.97
2017-11-27T08:09:07.519Z,84.36
2017-11-27T08:10:07.532Z,84.12
2017-11-27T08:11:07.541Z,84.69
2017-11-27T08:12:07.556Z,84.69
2017-11-27T08:13:07.573Z,84.45
2017-11-27T08:14:07.588Z,83.97
2017-11-27T08:15:07.601Z,84.26
2017-11-27T08:16:07.616Z,84.17
2017-11-27T08:17:07.628Z,84.36
2017-11-27T08:18:07.640Z,83.59
2017-11-27T08:19:07.664Z,84.36
2017-11-27T08:20:07.669Z,84.36
2017-11-27T08:21:07.693Z,84.07
2017-11-27T08:22:07.705Z,83.78
2017-11-27T08:23:07.710Z,83.22
2017-11-27T08:24:07.726Z,82.46
2017-11-27T08:25:07.742Z,82.46
2017-11-27T08:26:07.754Z,82.55
2017-11-27T08:27:07.774Z,82.93
2017-11-27T08:28:07.781Z,82.65
2017-11-27T08:29:07.799Z,82.55
2017-11-27T08:30:07.810Z,82.65
2017-11-27T08:31:07.828Z,82.65
2017-11-27T08:32:07.837Z,81.98
2017-11-27T08:33:07.852Z,81.88
2017-11-27T08:34:07.863Z,82.46
2017-11-27T08:35:07.882Z,81.88
2017-11-27T08:36:07.898Z,81.88
2017-11-27T08:37:07.911Z,81.84
2017-11-27T08:38:07.924Z,81.93
2017-11-27T08:39:07.945Z,81.74
2017-11-27T08:40:07.951Z,81.26
2017-11-27T08:41:07.967Z,81.13
2017-11-27T08:42:07.980Z,81.23
2017-11-27T08:43:07.995Z,81.98
2017-11-27T08:44:08.008Z,81.60
2017-11-27T08:45:08.039Z,81.51
2017-11-27T08:46:08.034Z,81.51
2017-11-27T08:47:08.048Z,82.08
2017-11-27T08:48:08.067Z,81.60
2017-11-27T08:49:08.086Z,82.27
2017-11-27T08:50:08.097Z,81.70
2017-11-27T08:51:08.112Z,81.98
2017-11-27T08:52:08.130Z,82.74
2017-11-27T08:53:08.137Z,82.46
2017-11-27T08:54:08.159Z,82.17
2017-11-27T08:55:08.164Z,81.70
2017-11-27T08:56:08.178Z,81.79
2017-11-27T08:57:08.191Z,82.93
2017-11-27T08:58:08.205Z,82.55
2017-11-27T08:59:08.224Z,82.46
2017-11-27T09:00:08.233Z,83.12
2017-11-27T09:01:08.249Z,83.22
2017-11-27T09:02:08.261Z,83.69
2017-11-27T09:03:08.276Z,83.16
2017-11-27T09:04:08.289Z,83.07
2017-11-27T09:05:08.306Z,83.50
2017-11-27T09:06:08.318Z,83.78
2017-11-27T09:07:08.331Z,84.07
2017-11-27T09:08:08.349Z,84.83
2017-11-27T09:09:08.362Z,85.49
2017-11-27T09:10:08.375Z,84.92
2017-11-27T09:11:08.388Z,85.49
2017-11-27T09:12:08.409Z,85.40
2017-11-27T09:13:08.417Z,85.78
2017-11-27T09:14:08.433Z,85.49
2017-11-27T09:15:08.445Z,86.44
2017-11-27T09:16:08.461Z,85.97
2017-11-27T09:17:08.474Z,86.35
2017-11-27T09:18:08.488Z,86.63
2017-11-27T09:19:08.505Z,85.87
2017-11-27T09:20:08.518Z,86.63
2017-11-27T09:21:08.531Z,86.35
2017-11-27T09:22:08.544Z,86.44
2017-11-27T09:23:08.559Z,86.82
2017-11-27T09:24:08.582Z,86.91
2017-11-27T09:25:08.596Z,87.58
2017-11-27T09:26:08.616Z,86.91
2017-11-27T09:27:08.617Z,87.58
2017-11-27T09:28:08.630Z,87.96
2017-11-27T09:29:08.643Z,88.24
2017-11-27T09:30:08.656Z,88.06
2017-11-27T09:31:08.670Z,87.77
2017-11-27T09:32:08.689Z,87.96
2017-11-27T09:33:08.699Z,87.92
2017-11-27T09:34:08.714Z,87.77
2017-11-27T09:35:08.728Z,88.10
2017-11-27T09:36:08.741Z,87.49
2017-11-27T09:37:08.757Z,87.49
2017-11-27T09:38:08.772Z,87.39
2017-11-27T09:39:08.791Z,87.25
2017-11-27T09:40:08.800Z,87.92
2017-11-27T09:41:08.812Z,88.15
2017-11-27T09:42:08.827Z,87.58
2017-11-27T09:43:08.845Z,86.87
2017-11-27T09:44:08.857Z,87.39
2017-11-27T09:45:08.869Z,87.20
2017-11-27T09:46:08.885Z,87.39
2017-11-27T09:47:08.898Z,87.20
2017-11-27T09:48:08.914Z,87.30
2017-11-27T09:49:08.923Z,87.49
2017-11-27T09:50:08.937Z,87.39
2017-11-27T09:51:08.949Z,87.49
2017-11-27T09:52:08.969Z,87.73
2017-11-27T09:53:08.985Z,88.10
2017-11-27T09:54:08.993Z,87.82
2017-11-27T09:55:09.009Z,87.49
2017-11-27T09:56:09.025Z,87.39
2017-11-27T09:57:09.037Z,87.68
2017-11-27T09:58:09.050Z,87.58
2017-11-27T09:59:09.064Z,86.91
2017-11-27T10:00:09.077Z,86.91
2017-11-27T10:01:09.097Z,87.01
2017-11-27T10:02:09.110Z,86.54
2017-11-27T10:03:09.126Z,86.35
2017-11-27T10:04:09.134Z,86.91
2017-11-27T10:05:09.154Z,86.91
2017-11-27T10:06:09.160Z,86.25
2017-11-27T10:07:09.175Z,86.82
2017-11-27T10:08:09.188Z,87.20
2017-11-27T10:09:09.203Z,87.11
2017-11-27T10:10:09.229Z,86.25
2017-11-27T10:11:09.236Z,86.44
2017-11-27T10:12:09.248Z,86.82
2017-11-27T10:13:09.264Z,86.91
2017-11-27T10:14:09.282Z,86.91
2017-11-27T10:15:09.289Z,87.01
2017-11-27T10:16:09.304Z,86.91
2017-11-27T10:17:09.316Z,86.97
2017-11-27T10:18:09.327Z,87.82
2017-11-27T10:19:09.343Z,88.39
2017-11-27T10:20:09.357Z,88.10
2017-11-27T10:21:09.376Z,87.77
2017-11-27T10:22:09.387Z,87.82
2017-11-27T10:23:09.399Z,87.45
2017-11-27T10:24:09.419Z,87.96
2017-11-27T10:25:09.433Z,87.82
2017-11-27T10:26:09.440Z,88.48
2017-11-27T10:27:09.456Z,88.10
2017-11-27T10:28:09.468Z,88.48
2017-11-27T10:29:09.484Z,88.24
2017-11-27T10:30:09.495Z,88.06
2017-11-27T10:31:09.510Z,88.48
2017-11-27T10:32:09.534Z,88.43
2017-11-27T10:33:09.537Z,88.43
2017-11-27T10:34:09.551Z,88.87
2017-11-27T10:35:09.564Z,88.29
2017-11-27T10:36:09.581Z,88.48
2017-11-27T10:37:09.593Z,88.34
2017-11-27T10:38:09.609Z,88.06
2017-11-27T10:39:09.622Z,87.77
2017-11-27T10:40:09.636Z,87.96
2017-11-27T10:41:09.658Z,88.24
2017-11-27T10:42:09.665Z,87.87
2017-11-27T10:43:09.676Z,87.68
2017-11-27T10:44:09.695Z,87.96
2017-11-27T10:45:09.705Z,87.96
2017-11-27T10:46:09.720Z,88.15
2017-11-27T10:47:09.740Z,87.68
2017-11-27T10:48:09.746Z,87.87
2017-11-27T10:49:09.760Z,88.43
2017-11-27T10:50:09.783Z,88.53
2017-11-27T10:51:09.801Z,88.34
2017-11-27T10:52:09.804Z,88.53
2017-11-27T10:53:09.825Z,88.34
2017-11-27T10:54:09.840Z,88.06
2017-11-27T10:55:09.848Z,87.20
2017-11-27T10:56:09.869Z,87.77
2017-11-27T10:57:09.906Z,87.96
2017-11-27T10:58:09.889Z,88.06
2017-11-27T10:59:09.901Z,88.43
2017-11-27T11:00:09.915Z,88.62
2017-11-27T11:01:09.930Z,88.34
2017-11-27T11:02:09.960Z,88.34
2017-11-27T11:03:09.958Z,88.72
2017-11-27T11:04:09.971Z,88.81
2017-11-27T11:05:09.987Z,88.53
2017-11-27T11:06:10.013Z,89.00
2017-11-27T11:07:10.033Z,89.29
2017-11-27T11:08:10.027Z,88.34
2017-11-27T11:09:10.042Z,89.00
2017-11-27T11:10:10.054Z,88.72
2017-11-27T11:11:10.072Z,88.81
2017-11-27T11:12:10.084Z,88.43
2017-11-27T11:13:10.099Z,88.53
2017-11-27T11:14:10.111Z,88.34
2017-11-27T11:15:10.126Z,88.53
2017-11-27T11:16:10.140Z,88.62
2017-11-27T11:17:10.156Z,88.43
2017-11-27T11:18:10.168Z,89.34
2017-11-27T11:19:10.181Z,89.00
2017-11-27T11:20:10.364Z,89.39
2017-11-27T11:21:10.210Z,89.10
2017-11-27T11:22:10.225Z,88.72
2017-11-27T11:23:10.241Z,89.72
2017-11-27T11:24:10.256Z,89.81
2017-11-27T11:25:10.271Z,89.76
2017-11-27T11:26:10.284Z,89.62
2017-11-27T11:27:10.296Z,90.57
2017-11-27T11:28:10.310Z,90.05
2017-11-27T11:29:10.324Z,89.29
2017-11-27T11:30:10.336Z,89.20
2017-11-27T11:31:10.357Z,89.29
2017-11-27T11:32:10.369Z,89.29
2017-11-27T11:33:10.378Z,89.00
2017-11-27T11:34:10.394Z,88.43
2017-11-27T11:35:10.409Z,88.43
2017-11-27T11:36:10.424Z,88.72
2017-11-27T11:37:10.432Z,89.15
2017-11-27T11:38:10.449Z,88.91
2017-11-27T11:39:10.463Z,88.68
2017-11-27T11:40:10.484Z,89.20
2017-11-27T11:41:10.490Z,89.15
2017-11-27T11:42:10.500Z,89.34
2017-11-27T11:43:10.520Z,89.62
2017-11-27T11:44:10.532Z,89.58
2017-11-27T11:45:10.545Z,89.34
2017-11-27T11:46:10.556Z,89.62
2017-11-27T11:47:10.571Z,89.81
2017-11-27T11:48:10.584Z,89.81
2017-11-27T11:49:10.603Z,89.62
2017-11-27T11:50:10.613Z,89.62
2017-11-27T11:51:10.630Z,89.72
2017-11-27T11:52:10.645Z,90.00
2017-11-27T11:53:10.658Z,89.81
2017-11-27T11:54:10.666Z,89.81
2017-11-27T11:55:10.682Z,89.62
2017-11-27T11:56:10.697Z,90.19
2017-11-27T11:57:10.708Z,89.72
2017-11-27T11:58:10.728Z,89.81
2017-11-27T11:59:10.737Z,90.00
2017-11-27T12:00:10.751Z,89.95
2017-11-27T12:01:10.766Z,89.34
2017-11-27T12:02:10.778Z,89.43
2017-11-27T12:03:10.797Z,89.91
2017-11-27T12:04:10.808Z,89.81
2017-11-27T12:05:10.818Z,90.48
2017-11-27T12:06:10.834Z,90.29
2017-11-27T12:07:10.848Z,90.19
2017-11-27T12:08:10.860Z,90.19
2017-11-27T12:09:10.884Z,89.86
2017-11-27T12:10:10.890Z,90.19
2017-11-27T12:11:10.903Z,89.81
2017-11-27T12:12:10.919Z,90.29
2017-11-27T12:13:10.935Z,90.67
2017-11-27T12:14:10.947Z,90.67
2017-11-27T12:15:10.959Z,90.48
2017-11-27T12:16:10.973Z,90.57
2017-11-27T12:17:10.987Z,89.91
2017-11-27T12:18:11.001Z,89.20
2017-11-27T12:19:11.016Z,89.34
2017-11-27T12:20:11.027Z,90.19
2017-11-27T12:21:11.041Z,89.62
2017-11-27T12:22:11.054Z,89.81
2017-11-27T12:23:11.070Z,89.91
2017-11-27T12:24:11.082Z,90.10
2017-11-27T12:25:11.099Z,90.00
2017-11-27T12:26:11.116Z,90.10
2017-11-27T12:27:11.124Z,90.57
2017-11-27T12:28:11.161Z,90.76
2017-11-27T12:29:11.155Z,90.24
2017-11-27T12:30:11.168Z,89.86
2017-11-27T12:31:11.184Z,90.29
2017-11-27T12:32:11.195Z,90.57
2017-11-27T12:33:11.206Z,91.05
2017-11-27T12:34:11.222Z,91.14
2017-11-27T12:35:11.237Z,91.14
2017-11-27T12:36:11.250Z,91.33
2017-11-27T12:37:11.265Z,90.95
2017-11-27T12:38:11.295Z,90.57
2017-11-27T12:39:11.292Z,91.05
2017-11-27T12:40:11.307Z,90.76
2017-11-27T12:41:11.320Z,91.24
2017-11-27T12:42:11.334Z,90.29
2017-11-27T12:43:11.347Z,89.58
2017-11-27T12:44:11.360Z,90.38
2017-11-27T12:45:11.376Z,90.33
2017-11-27T12:46:11.385Z,89.58
2017-11-27T12:47:11.409Z,89.91
2017-11-27T12:48:11.413Z,90.24
2017-11-27T12:49:11.427Z,90.24
2017-11-27T12:50:11.456Z,89.86
2017-11-27T12:51:11.456Z,90.29
2017-11-27T12:52:11.476Z,90.24